createdAt,value
2022-10-04T00:01:46.733Z,81.30
2022-10-04T00:04:23.237Z,82.10
2022-10-04T00:07:03.796Z,82.60
2022-10-04T00:10:16.810Z,82.50
2022-10-04T00:13:07.457Z,81.50
2022-10-04T00:15:38.792Z,81.40
2022-10-04T00:18:11.450Z,83.20
2022-10-04T00:20:56.004Z,82.70
2022-10-04T00:23:30.211Z,81.80
2022-10-04T00:26:03.615Z,83.30
2022-10-04T00:28:46.252Z,83.40
2022-10-04T00:31:27.929Z,82.00
2022-10-04T00:34:16.473Z,81.30
2022-10-04T00:36:55.740Z,83.10
2022-10-04T00:39:34.214Z,82.30
2022-10-04T00:42:19.222Z,81.90
2022-10-04T00:45:03.785Z,81.20
2022-10-04T00:48:00.764Z,80.30
2022-10-04T00:50:38.744Z,81.10
2022-10-04T00:53:36.431Z,80.80
2022-10-04T00:56:11.406Z,80.60
2022-10-04T00:58:58.952Z,81.30
2022-10-04T01:01:29.265Z,79.50
2022-10-04T01:03:58.888Z,81.20
2022-10-04T01:06:27.222Z,81.10
2022-10-04T01:09:05.061Z,81.20
2022-10-04T01:11:41.470Z,81.00
2022-10-04T01:14:32.082Z,80.70
2022-10-04T01:16:58.889Z,79.90
2022-10-04T01:19:31.786Z,81.10
2022-10-04T01:22:37.593Z,80.50
2022-10-04T01:25:05.229Z,80.80
2022-10-04T01:27:40.417Z,80.80
2022-10-04T01:30:15.007Z,80.80
2022-10-04T01:32:43.064Z,80.60
2022-10-04T01:35:15.732Z,80.80
2022-10-04T01:37:42.755Z,80.30
2022-10-04T01:40:11.238Z,80.90
2022-10-04T01:42:57.502Z,80.90
2022-10-04T01:45:58.691Z,79.50
2022-10-04T01:48:32.397Z,80.40
2022-10-04T01:51:20.278Z,80.80
2022-10-04T01:54:00.207Z,79.50
2022-10-04T01:56:44.508Z,80.40
2022-10-04T01:59:28.860Z,80.60
2022-10-04T02:02:19.673Z,79.70
2022-10-04T02:04:54.957Z,79.80
2022-10-04T02:07:26.130Z,80.70
2022-10-04T02:09:59.568Z,81.10
2022-10-04T02:12:31.360Z,80.80
2022-10-04T02:15:02.552Z,81.10
2022-10-04T02:17:40.301Z,81.00
2022-10-04T02:20:24.686Z,80.70
2022-10-04T02:22:59.441Z,80.60
2022-10-04T02:25:26.868Z,80.90
2022-10-04T02:27:54.491Z,81.10
2022-10-04T02:30:23.153Z,81.20
2022-10-04T02:32:59.628Z,81.30
2022-10-04T02:35:44.816Z,81.00
2022-10-04T02:38:22.275Z,80.50
2022-10-04T02:41:17.461Z,81.00
2022-10-04T02:44:21.603Z,80.30
2022-10-04T02:47:13.545Z,80.00
2022-10-04T02:49:57.767Z,81.20
2022-10-04T02:53:23.309Z,81.00
2022-10-04T02:55:50.535Z,79.60
2022-10-04T02:58:22.794Z,81.50
2022-10-04T03:00:57.050Z,81.40
2022-10-04T03:03:30.965Z,81.50
2022-10-04T03:06:09.118Z,80.80
2022-10-04T03:08:59.111Z,80.70
2022-10-04T03:11:33.730Z,81.40
2022-10-04T03:14:05.051Z,81.40
2022-10-04T03:16:39.342Z,81.40
2022-10-04T03:19:08.846Z,81.10
2022-10-04T03:21:40.015Z,81.50
2022-10-04T03:24:08.660Z,81.30
2022-10-04T03:26:54.522Z,81.50
2022-10-04T03:29:26.974Z,80.00
2022-10-04T03:31:58.219Z,81.20
2022-10-04T03:34:38.680Z,81.20
2022-10-04T03:37:15.141Z,81.10
2022-10-04T03:39:49.864Z,80.70
2022-10-04T03:42:23.256Z,80.80
2022-10-04T03:44:56.351Z,81.00
2022-10-04T03:47:35.740Z,81.20
2022-10-04T03:50:18.791Z,81.10
2022-10-04T03:52:55.612Z,80.30
2022-10-04T03:55:33.326Z,80.40
2022-10-04T03:58:01.407Z,81.30
2022-10-04T04:00:28.958Z,81.60
2022-10-04T04:03:06.091Z,81.60
2022-10-04T04:05:47.318Z,81.10
2022-10-04T04:08:39.624Z,80.90
2022-10-04T04:11:13.978Z,81.50
2022-10-04T04:14:10.959Z,81.70
2022-10-04T04:16:38.802Z,80.20
2022-10-04T04:19:17.008Z,81.70
2022-10-04T04:21:44.868Z,81.20
2022-10-04T04:24:29.635Z,81.70
2022-10-04T04:27:01.381Z,80.30
2022-10-04T04:29:53.391Z,81.50
2022-10-04T04:32:36.477Z,81.20
2022-10-04T04:35:10.199Z,80.50
2022-10-04T04:37:38.590Z,81.50
2022-10-04T04:40:24.398Z,81.60
2022-10-04T04:42:52.652Z,80.10
2022-10-04T04:45:25.783Z,81.60
2022-10-04T04:47:58.330Z,81.50
2022-10-04T04:50:30.427Z,81.40
2022-10-04T04:53:16.461Z,81.50
2022-10-04T04:56:11.063Z,80.90
2022-10-04T04:58:46.724Z,80.80
2022-10-04T05:01:37.304Z,80.60
2022-10-04T05:04:04.013Z,79.70
2022-10-04T05:06:33.363Z,81.20
2022-10-04T05:09:00.786Z,81.20
2022-10-04T05:11:34.870Z,81.20
2022-10-04T05:14:11.088Z,80.90
2022-10-04T05:16:50.413Z,80.90
2022-10-04T05:19:22.508Z,80.10
2022-10-04T05:21:53.834Z,80.70
2022-10-04T05:24:51.496Z,81.50
2022-10-04T05:27:36.741Z,80.70
2022-10-04T05:30:28.955Z,80.50
2022-10-04T05:33:18.488Z,81.10
2022-10-04T05:36:11.080Z,80.30
2022-10-04T05:38:51.351Z,81.40
2022-10-04T05:41:36.490Z,81.30
2022-10-04T05:44:48.902Z,81.80
2022-10-04T05:47:22.837Z,81.50
2022-10-04T05:49:55.574Z,83.40
2022-10-04T05:52:41.155Z,83.70
2022-10-04T05:55:22.691Z,81.70
2022-10-04T05:58:25.376Z,83.20
2022-10-04T06:01:40.527Z,82.70
2022-10-04T06:04:35.127Z,82.20
2022-10-04T06:07:14.912Z,84.80
2022-10-04T06:10:26.817Z,85.00
2022-10-04T06:13:40.566Z,82.70
2022-10-04T06:16:50.628Z,83.40
2022-10-04T06:19:49.733Z,83.70
2022-10-04T06:22:20.573Z,83.00
2022-10-04T06:25:06.913Z,87.20
2022-10-04T06:28:05.389Z,83.10
2022-10-04T06:30:58.260Z,85.90
2022-10-04T06:33:30.854Z,85.00
2022-10-04T06:36:33.604Z,85.70
2022-10-04T06:39:06.097Z,83.10
2022-10-04T06:41:44.799Z,85.30
2022-10-04T06:44:49.159Z,85.10
2022-10-04T06:47:37.108Z,84.50
2022-10-04T06:50:50.495Z,83.80
2022-10-04T06:53:54.690Z,83.00
2022-10-04T06:56:55.916Z,84.80
2022-10-04T06:59:39.630Z,85.60
2022-10-04T07:02:21.414Z,86.00
2022-10-04T07:05:09.704Z,87.40
2022-10-04T07:07:44.854Z,86.20
2022-10-04T07:10:40.543Z,88.30
2022-10-04T07:13:33.141Z,84.90
2022-10-04T07:16:06.142Z,87.80
2022-10-04T07:19:01.075Z,89.70
2022-10-04T07:21:52.913Z,90.20
2022-10-04T07:24:47.275Z,87.20
2022-10-04T07:27:24.275Z,89.10
2022-10-04T07:29:57.792Z,89.70
2022-10-04T07:32:38.730Z,87.60
2022-10-04T07:35:14.550Z,85.80
2022-10-04T07:38:10.487Z,83.10
2022-10-04T07:40:43.292Z,86.20
2022-10-04T07:43:28.633Z,89.40
2022-10-04T07:46:17.407Z,85.20
2022-10-04T07:48:44.550Z,87.30
2022-10-04T07:51:32.618Z,90.40
2022-10-04T07:54:16.160Z,83.10
2022-10-04T07:57:13.887Z,87.90
2022-10-04T08:00:18.898Z,82.80
2022-10-04T08:03:20.006Z,80.80
2022-10-04T08:06:12.218Z,79.20
2022-10-04T08:08:58.140Z,78.20
2022-10-04T08:11:44.291Z,78.70
2022-10-04T08:14:45.065Z,77.30
2022-10-04T08:17:45.906Z,77.30
2022-10-04T08:20:48.237Z,80.30
2022-10-04T08:23:47.129Z,81.50
2022-10-04T08:26:38.813Z,81.30
2022-10-04T08:29:44.673Z,78.80
2022-10-04T08:32:29.524Z,80.00
2022-10-04T08:35:39.974Z,79.60
2022-10-04T08:38:31.492Z,79.20
2022-10-04T08:41:45.925Z,82.60
2022-10-04T08:44:42.976Z,74.50
2022-10-04T08:47:38.355Z,79.30
2022-10-04T08:50:55.150Z,81.20
2022-10-04T08:53:48.874Z,77.30
2022-10-04T08:57:15.726Z,69.10
2022-10-04T08:59:57.847Z,69.00
2022-10-04T09:02:58.224Z,72.30
2022-10-04T09:05:58.774Z,68.80
2022-10-04T09:09:07.609Z,66.70
2022-10-04T09:11:56.259Z,68.80
2022-10-04T09:14:39.977Z,70.30
2022-10-04T09:17:22.458Z,77.70
2022-10-04T09:20:39.878Z,69.60
2022-10-04T09:23:31.362Z,68.10
2022-10-04T09:26:44.987Z,69.00
2022-10-04T09:30:01.313Z,69.10
2022-10-04T09:32:59.303Z,69.60
2022-10-04T09:35:49.754Z,75.80
2022-10-04T09:39:17.943Z,69.30
2022-10-04T09:42:26.697Z,68.70
2022-10-04T09:45:32.466Z,67.20
2022-10-04T09:48:45.964Z,76.20
2022-10-04T09:51:35.802Z,66.00
2022-10-04T09:54:45.708Z,68.80
2022-10-04T09:57:39.912Z,67.80
2022-10-04T10:00:23.348Z,74.50
2022-10-04T10:03:15.633Z,66.60
2022-10-04T10:05:54.543Z,70.20
2022-10-04T10:08:50.665Z,70.80
2022-10-04T10:12:00.870Z,73.00
2022-10-04T10:15:17.135Z,65.40
2022-10-04T10:18:21.852Z,64.20
2022-10-04T10:21:28.277Z,63.70
2022-10-04T10:24:19.660Z,63.70
2022-10-04T10:27:24.995Z,65.50
2022-10-04T10:29:59.406Z,62.70
2022-10-04T10:32:59.727Z,64.60
2022-10-04T10:36:17.066Z,63.40
2022-10-04T10:39:14.616Z,61.80
2022-10-04T10:42:19.867Z,63.30
2022-10-04T10:45:26.545Z,62.60
2022-10-04T10:48:35.211Z,64.10
2022-10-04T10:51:30.775Z,64.10
2022-10-04T10:54:51.052Z,63.90
2022-10-04T10:57:51.408Z,63.80
2022-10-04T11:00:21.353Z,67.40
2022-10-04T11:03:35.979Z,67.50
2022-10-04T11:06:29.954Z,63.70
2022-10-04T11:09:27.723Z,64.60
2022-10-04T11:12:41.664Z,63.30
2022-10-04T11:15:38.510Z,63.10
2022-10-04T11:18:28.052Z,65.20
2022-10-04T11:21:25.701Z,70.10
2022-10-04T11:24:46.529Z,65.10
2022-10-04T11:27:18.840Z,65.10
2022-10-04T11:30:26.525Z,69.80
2022-10-04T11:33:52.943Z,65.30
2022-10-04T11:37:16.626Z,63.80
2022-10-04T11:40:09.559Z,64.80
2022-10-04T11:42:56.708Z,62.40
2022-10-04T11:46:01.944Z,69.40
2022-10-04T11:49:06.276Z,63.80
2022-10-04T11:52:02.510Z,69.20
2022-10-04T11:55:08.172Z,63.50
2022-10-04T11:57:58.855Z,63.10
2022-10-04T12:00:49.577Z,63.00
2022-10-04T12:04:01.517Z,68.40
2022-10-04T12:07:11.197Z,64.70
2022-10-04T12:09:49.312Z,65.20
2022-10-04T12:12:36.978Z,66.40
2022-10-04T12:16:13.077Z,62.60
2022-10-04T12:18:58.127Z,62.90
2022-10-04T12:22:05.608Z,66.90
2022-10-04T12:25:10.345Z,63.20
2022-10-04T12:28:00.431Z,63.30
2022-10-04T12:31:04.087Z,68.60
2022-10-04T12:33:54.598Z,64.30
2022-10-04T12:36:36.229Z,65.60
2022-10-04T12:39:36.808Z,63.00
2022-10-04T12:42:39.566Z,61.60
2022-10-04T12:46:06.464Z,62.00
2022-10-04T12:48:57.382Z,61.70
2022-10-04T12:51:34.469Z,62.00
2022-10-04T12:54:33.266Z,66.30
2022-10-04T12:57:37.775Z,63.60
2022-10-04T13:00:22.888Z,63.30
2022-10-04T13:03:04.432Z,64.30
2022-10-04T13:05:46.654Z,63.00
2022-10-04T13:08:29.503Z,63.20
2022-10-04T13:11:36.185Z,67.00
2022-10-04T13:14:28.109Z,65.30
2022-10-04T13:17:34.458Z,62.00
2022-10-04T13:20:26.065Z,61.80
2022-10-04T13:23:07.565Z,61.80
2022-10-04T13:25:37.578Z,63.70
2022-10-04T13:28:32.121Z,64.60
2022-10-04T13:31:24.587Z,61.90
2022-10-04T13:34:36.541Z,63.20
2022-10-04T13:37:40.445Z,64.20
2022-10-04T13:40:25.811Z,61.40
2022-10-04T13:43:16.806Z,65.70
2022-10-04T13:46:37.483Z,62.90
2022-10-04T13:49:20.112Z,61.80
2022-10-04T13:52:29.445Z,66.30
2022-10-04T13:55:23.696Z,62.00
2022-10-04T13:57:57.932Z,62.10
2022-10-04T14:00:49.864Z,66.10
2022-10-04T14:03:32.828Z,61.60
2022-10-04T14:06:40.342Z,62.30
2022-10-04T14:09:28.870Z,62.30
2022-10-04T14:12:44.974Z,67.20
2022-10-04T14:16:00.327Z,65.90
2022-10-04T14:18:57.756Z,68.40
2022-10-04T14:21:36.450Z,73.20
2022-10-04T14:24:37.278Z,63.40
2022-10-04T14:27:42.928Z,67.20
2022-10-04T14:31:20.095Z,62.40
2022-10-04T14:34:27.432Z,58.90
2022-10-04T14:37:32.515Z,60.50
2022-10-04T14:40:38.833Z,54.50
2022-10-04T14:43:24.341Z,56.60
2022-10-04T14:46:38.988Z,58.30
2022-10-04T14:49:46.979Z,60.30
2022-10-04T14:52:45.099Z,62.30
2022-10-04T14:55:31.204Z,58.60
2022-10-04T14:58:40.950Z,60.10
2022-10-04T15:01:29.209Z,58.70
2022-10-04T15:04:11.600Z,57.00
2022-10-04T15:06:49.643Z,63.00
2022-10-04T15:09:47.344Z,57.30
2022-10-04T15:12:58.413Z,57.00
2022-10-04T15:15:18.955Z,53.70
2022-10-04T15:17:51.377Z,58.90
2022-10-04T15:20:33.724Z,55.00
2022-10-04T15:23:42.877Z,52.00
2022-10-04T15:26:18.886Z,51.20
2022-10-04T15:28:54.326Z,52.10
2022-10-04T15:31:31.702Z,51.50
2022-10-04T15:34:26.450Z,49.90
2022-10-04T15:37:09.532Z,54.00
2022-10-04T15:40:03.455Z,47.30
2022-10-04T15:42:59.560Z,49.40
2022-10-04T15:46:03.623Z,46.50
2022-10-04T15:48:51.742Z,49.70
2022-10-04T15:52:03.389Z,47.60
2022-10-04T15:54:42.399Z,46.20
2022-10-04T15:57:40.456Z,45.30
2022-10-04T16:00:20.162Z,45.70
2022-10-04T16:03:18.814Z,46.30
2022-10-04T16:06:04.421Z,47.60
2022-10-04T16:08:48.526Z,50.70
2022-10-04T16:11:46.238Z,48.80
2022-10-04T16:14:21.834Z,49.20
2022-10-04T16:17:21.921Z,51.10
2022-10-04T16:20:09.950Z,50.70
2022-10-04T16:22:38.262Z,53.30
2022-10-04T16:25:23.674Z,54.70
2022-10-04T16:27:56.803Z,52.60
2022-10-04T16:30:44.104Z,54.10
2022-10-04T16:33:36.915Z,55.30
2022-10-04T16:36:12.406Z,54.40
2022-10-04T16:39:11.728Z,56.50
2022-10-04T16:42:04.909Z,56.30
2022-10-04T16:44:50.104Z,58.60
2022-10-04T16:47:50.637Z,58.00
2022-10-04T16:50:52.578Z,57.10
2022-10-04T16:53:49.407Z,57.60
2022-10-04T16:56:19.131Z,58.10
2022-10-04T16:59:01.890Z,60.60
2022-10-04T17:02:08.210Z,59.80
2022-10-04T17:04:40.388Z,59.50
2022-10-04T17:07:10.160Z,61.30
2022-10-04T17:10:21.095Z,61.50
2022-10-04T17:13:23.355Z,62.30
2022-10-04T17:16:13.720Z,61.20
2022-10-04T17:19:16.868Z,61.90
2022-10-04T17:22:06.842Z,61.90
2022-10-04T17:24:52.352Z,63.00
2022-10-04T17:27:39.309Z,63.20
2022-10-04T17:30:24.936Z,64.30
2022-10-04T17:33:00.771Z,63.30
2022-10-04T17:35:46.994Z,64.00
2022-10-04T17:39:04.092Z,65.00
2022-10-04T17:41:44.187Z,64.70
2022-10-04T17:44:41.990Z,65.30
2022-10-04T17:47:24.110Z,64.70
2022-10-04T17:50:42.151Z,65.00
2022-10-04T17:53:43.327Z,65.10
2022-10-04T17:56:13.177Z,65.60
2022-10-04T17:58:57.492Z,66.50
2022-10-04T18:01:38.338Z,65.80
2022-10-04T18:04:30.424Z,66.60
2022-10-04T18:07:13.091Z,65.20
2022-10-04T18:09:49.511Z,66.60
2022-10-04T18:12:44.036Z,67.10
2022-10-04T18:15:30.334Z,66.50
2022-10-04T18:18:21.740Z,67.00
2022-10-04T18:20:54.337Z,67.10
2022-10-04T18:23:30.711Z,67.20
2022-10-04T18:26:11.018Z,67.20
2022-10-04T18:28:38.613Z,67.60
2022-10-04T18:31:23.174Z,68.00
2022-10-04T18:33:54.055Z,67.40
2022-10-04T18:36:31.223Z,68.10
2022-10-04T18:39:06.009Z,66.80
2022-10-04T18:41:51.355Z,68.20
2022-10-04T18:44:25.464Z,68.50
2022-10-04T18:47:00.261Z,68.50
2022-10-04T18:49:47.541Z,68.60
2022-10-04T18:52:47.707Z,68.70
2022-10-04T18:55:52.119Z,68.70
2022-10-04T18:59:39.289Z,68.70
2022-10-04T19:02:47.483Z,68.60
2022-10-04T19:05:32.067Z,68.70
2022-10-04T19:08:29.151Z,70.00
2022-10-04T19:11:42.629Z,69.30
2022-10-04T19:14:27.519Z,69.50
2022-10-04T19:17:20.247Z,69.70
2022-10-04T19:20:12.947Z,69.80
2022-10-04T19:23:19.785Z,70.20
2022-10-04T19:26:32.229Z,70.10
2022-10-04T19:29:08.374Z,69.80
2022-10-04T19:31:50.936Z,70.20
2022-10-04T19:34:38.252Z,70.50
2022-10-04T19:37:28.263Z,70.70
2022-10-04T19:40:25.484Z,70.10
2022-10-04T19:43:18.176Z,70.80
2022-10-04T19:46:33.077Z,70.40
2022-10-04T19:48:59.995Z,70.20
2022-10-04T19:51:41.536Z,71.10
2022-10-04T19:54:15.964Z,70.70
2022-10-04T19:56:49.156Z,71.10
2022-10-04T19:59:35.787Z,71.20
2022-10-04T20:02:11.109Z,71.20
2022-10-04T20:04:38.848Z,71.50
2022-10-04T20:07:14.543Z,71.60
2022-10-04T20:09:43.215Z,71.50
2022-10-04T20:12:38.439Z,71.60
2022-10-04T20:15:17.468Z,71.00
2022-10-04T20:17:47.491Z,71.20
2022-10-04T20:20:38.336Z,71.80
2022-10-04T20:23:10.115Z,72.00
2022-10-04T20:25:46.143Z,72.00
2022-10-04T20:28:27.992Z,71.70
2022-10-04T20:30:58.362Z,71.60
2022-10-04T20:33:34.063Z,72.20
2022-10-04T20:36:09.301Z,71.90
2022-10-04T20:39:00.338Z,72.20
2022-10-04T20:41:48.804Z,72.20
2022-10-04T20:44:53.714Z,72.50
2022-10-04T20:47:38.185Z,72.00
2022-10-04T20:50:11.784Z,72.40
2022-10-04T20:52:45.210Z,72.70
2022-10-04T20:55:27.160Z,72.80
2022-10-04T20:58:04.446Z,72.50
2022-10-04T21:00:34.664Z,72.90
2022-10-04T21:03:17.788Z,73.00
2022-10-04T21:05:59.384Z,72.50
2022-10-04T21:08:27.837Z,73.10
2022-10-04T21:11:21.023Z,73.10
2022-10-04T21:13:48.621Z,72.40
2022-10-04T21:16:42.463Z,73.10
2022-10-04T21:19:48.426Z,72.30
2022-10-04T21:22:17.978Z,72.30
2022-10-04T21:24:50.916Z,72.90
2022-10-04T21:27:30.193Z,72.70
2022-10-04T21:29:58.254Z,72.60
2022-10-04T21:32:27.502Z,73.20
2022-10-04T21:34:54.820Z,73.20
2022-10-04T21:37:22.303Z,73.30
2022-10-04T21:39:49.291Z,73.30
2022-10-04T21:42:16.668Z,73.30
2022-10-04T21:44:43.761Z,73.40
2022-10-04T21:47:14.211Z,73.40
2022-10-04T21:49:41.593Z,73.50
2022-10-04T21:52:08.454Z,73.60
2022-10-04T21:54:35.699Z,73.50
2022-10-04T21:57:02.471Z,73.50
2022-10-04T21:59:29.275Z,73.50
2022-10-04T22:01:56.107Z,73.60
2022-10-04T22:04:23.045Z,73.70
2022-10-04T22:06:49.974Z,73.70
2022-10-04T22:09:16.912Z,73.80
2022-10-04T22:11:43.771Z,73.90
2022-10-04T22:14:10.647Z,73.90
2022-10-04T22:16:37.561Z,74.00
2022-10-04T22:19:05.044Z,74.10
2022-10-04T22:21:31.868Z,74.20
2022-10-04T22:23:59.578Z,74.20
2022-10-04T22:26:28.013Z,74.20
2022-10-04T22:28:56.592Z,74.20
2022-10-04T22:31:28.995Z,74.20
2022-10-04T22:33:56.536Z,74.20
2022-10-04T22:36:40.084Z,74.30
2022-10-04T22:39:09.811Z,73.90
2022-10-04T22:41:55.767Z,74.40
2022-10-04T22:44:27.965Z,74.50
2022-10-04T22:46:59.749Z,74.60
2022-10-04T22:49:33.947Z,74.60
2022-10-04T22:52:09.690Z,74.60
2022-10-04T22:54:38.593Z,74.60
2022-10-04T22:57:05.399Z,74.60
2022-10-04T22:59:39.867Z,74.60
2022-10-04T23:02:26.873Z,74.40
2022-10-04T23:05:00.861Z,74.50
2022-10-04T23:07:27.718Z,74.60
2022-10-04T23:09:54.564Z,75.20
2022-10-04T23:12:21.660Z,74.80
2022-10-04T23:14:48.475Z,74.80
2022-10-04T23:17:30.356Z,74.80
2022-10-04T23:20:02.314Z,74.40
2022-10-04T23:22:30.706Z,74.90
2022-10-04T23:24:57.940Z,74.90
2022-10-04T23:27:24.828Z,74.90
2022-10-04T23:30:20.345Z,74.90
2022-10-04T23:32:51.497Z,74.10
2022-10-04T23:35:23.661Z,74.90
2022-10-04T23:37:52.724Z,74.90
2022-10-04T23:40:22.002Z,75.00
2022-10-04T23:42:53.624Z,75.10
2022-10-04T23:45:24.114Z,75.10
2022-10-04T23:47:57.208Z,75.10
2022-10-04T23:50:33.024Z,74.90
2022-10-04T23:53:06.260Z,75.00
2022-10-04T23:55:38.506Z,75.10
2022-10-04T23:58:20.338Z,75.10
